sensor_id;sensor_type;location;lat;lon;timestamp;P1;durP1;ratioP1;P2;durP2;ratioP2
28431;SDS011;15664;51.302;7.744;2022-12-18T00:02:03;5.82;;;2.38;;
28431;SDS011;15664;51.302;7.744;2022-12-18T00:04:29;7.57;;;2.60;;
28431;SDS011;15664;51.302;7.744;2022-12-18T00:06:54;7.60;;;2.60;;
28431;SDS011;15664;51.302;7.744;2022-12-18T00:09:20;6.93;;;2.10;;
28431;SDS011;15664;51.302;7.744;2022-12-18T00:11:46;5.57;;;2.13;;
28431;SDS011;15664;51.302;7.744;2022-12-18T00:14:11;5.70;;;2.07;;
28431;SDS011;15664;51.302;7.744;2022-12-18T00:16:38;5.63;;;2.00;;
28431;SDS011;15664;51.302;7.744;2022-12-18T00:19:04;7.77;;;2.00;;
28431;SDS011;15664;51.302;7.744;2022-12-18T00:21:30;6.95;;;2.05;;
28431;SDS011;15664;51.302;7.744;2022-12-18T00:23:58;5.18;;;1.75;;
28431;SDS011;15664;51.302;7.744;2022-12-18T00:26:28;9.13;;;2.25;;
28431;SDS011;15664;51.302;7.744;2022-12-18T00:28:59;5.85;;;1.92;;
28431;SDS011;15664;51.302;7.744;2022-12-18T00:31:26;6.28;;;1.80;;
28431;SDS011;15664;51.302;7.744;2022-12-18T00:33:53;4.65;;;1.90;;
28431;SDS011;15664;51.302;7.744;2022-12-18T00:36:21;7.47;;;2.20;;
28431;SDS011;15664;51.302;7.744;2022-12-18T00:38:50;7.78;;;1.92;;
28431;SDS011;15664;51.302;7.744;2022-12-18T00:41:16;5.35;;;2.05;;
28431;SDS011;15664;51.302;7.744;2022-12-18T00:44:03;5.90;;;2.00;;
28431;SDS011;15664;51.302;7.744;2022-12-18T00:46:30;5.45;;;1.88;;
28431;SDS011;15664;51.302;7.744;2022-12-18T00:48:56;7.68;;;2.20;;
28431;SDS011;15664;51.302;7.744;2022-12-18T00:51:22;7.67;;;2.53;;
28431;SDS011;15664;51.302;7.744;2022-12-18T00:53:48;7.85;;;2.67;;
28431;SDS011;15664;51.302;7.744;2022-12-18T00:56:13;8.73;;;2.13;;
28431;SDS011;15664;51.302;7.744;2022-12-18T00:58:38;9.27;;;2.20;;
28431;SDS011;15664;51.302;7.744;2022-12-18T01:01:04;4.17;;;1.30;;
28431;SDS011;15664;51.302;7.744;2022-12-18T01:03:32;7.68;;;2.25;;
28431;SDS011;15664;51.302;7.744;2022-12-18T01:05:58;5.10;;;2.07;;
28431;SDS011;15664;51.302;7.744;2022-12-18T01:08:23;6.13;;;2.00;;
28431;SDS011;15664;51.302;7.744;2022-12-18T01:10:49;5.32;;;2.20;;
28431;SDS011;15664;51.302;7.744;2022-12-18T01:13:14;5.85;;;1.88;;
28431;SDS011;15664;51.302;7.744;2022-12-18T01:15:39;5.53;;;1.80;;
28431;SDS011;15664;51.302;7.744;2022-12-18T01:18:05;4.83;;;1.83;;
28431;SDS011;15664;51.302;7.744;2022-12-18T01:20:31;5.78;;;1.90;;
28431;SDS011;15664;51.302;7.744;2022-12-18T01:22:57;4.68;;;1.70;;
28431;SDS011;15664;51.302;7.744;2022-12-18T01:25:22;6.13;;;2.23;;
28431;SDS011;15664;51.302;7.744;2022-12-18T01:27:49;10.88;;;2.40;;
28431;SDS011;15664;51.302;7.744;2022-12-18T01:30:14;4.77;;;1.57;;
28431;SDS011;15664;51.302;7.744;2022-12-18T01:32:40;8.47;;;2.13;;
28431;SDS011;15664;51.302;7.744;2022-12-18T01:35:06;8.70;;;2.30;;
28431;SDS011;15664;51.302;7.744;2022-12-18T01:37:31;9.27;;;2.22;;
28431;SDS011;15664;51.302;7.744;2022-12-18T01:39:57;5.23;;;1.77;;
28431;SDS011;15664;51.302;7.744;2022-12-18T01:42:22;5.90;;;2.38;;
28431;SDS011;15664;51.302;7.744;2022-12-18T01:44:59;7.33;;;2.13;;
28431;SDS011;15664;51.302;7.744;2022-12-18T01:50:15;7.15;;;2.28;;
28431;SDS011;15664;51.302;7.744;2022-12-18T01:55:42;6.10;;;2.10;;
28431;SDS011;15664;51.302;7.744;2022-12-18T01:58:10;3.83;;;1.65;;
28431;SDS011;15664;51.302;7.744;2022-12-18T02:00:35;7.00;;;1.83;;
28431;SDS011;15664;51.302;7.744;2022-12-18T02:03:00;5.87;;;1.87;;
28431;SDS011;15664;51.302;7.744;2022-12-18T02:05:44;5.43;;;1.83;;
28431;SDS011;15664;51.302;7.744;2022-12-18T02:08:22;5.72;;;2.20;;
28431;SDS011;15664;51.302;7.744;2022-12-18T02:13:36;7.10;;;2.50;;
28431;SDS011;15664;51.302;7.744;2022-12-18T02:16:33;5.60;;;1.90;;
28431;SDS011;15664;51.302;7.744;2022-12-18T02:19:17;5.07;;;2.00;;
28431;SDS011;15664;51.302;7.744;2022-12-18T02:22:07;6.07;;;1.75;;
28431;SDS011;15664;51.302;7.744;2022-12-18T02:24:57;6.38;;;1.65;;
28431;SDS011;15664;51.302;7.744;2022-12-18T02:27:30;5.82;;;1.67;;
28431;SDS011;15664;51.302;7.744;2022-12-18T02:29:59;5.80;;;1.80;;
28431;SDS011;15664;51.302;7.744;2022-12-18T02:32:28;7.37;;;2.33;;
28431;SDS011;15664;51.302;7.744;2022-12-18T02:35:02;5.10;;;2.05;;
28431;SDS011;15664;51.302;7.744;2022-12-18T02:37:30;6.82;;;1.95;;
28431;SDS011;15664;51.302;7.744;2022-12-18T02:40:00;4.78;;;1.92;;
28431;SDS011;15664;51.302;7.744;2022-12-18T02:42:29;6.63;;;2.00;;
28431;SDS011;15664;51.302;7.744;2022-12-18T02:44:55;7.10;;;2.05;;
28431;SDS011;15664;51.302;7.744;2022-12-18T02:47:30;5.57;;;2.10;;
28431;SDS011;15664;51.302;7.744;2022-12-18T02:50:07;5.87;;;1.90;;
28431;SDS011;15664;51.302;7.744;2022-12-18T02:52:45;7.32;;;2.03;;
28431;SDS011;15664;51.302;7.744;2022-12-18T02:58:47;5.73;;;2.10;;
28431;SDS011;15664;51.302;7.744;2022-12-18T03:01:09;8.45;;;1.83;;
28431;SDS011;15664;51.302;7.744;2022-12-18T03:03:51;6.45;;;2.03;;
28431;SDS011;15664;51.302;7.744;2022-12-18T03:09:19;3.50;;;1.47;;
28431;SDS011;15664;51.302;7.744;2022-12-18T03:11:48;5.90;;;1.73;;
28431;SDS011;15664;51.302;7.744;2022-12-18T03:14:38;4.35;;;1.58;;
28431;SDS011;15664;51.302;7.744;2022-12-18T03:17:11;5.90;;;2.00;;
28431;SDS011;15664;51.302;7.744;2022-12-18T03:19:39;5.30;;;1.70;;
28431;SDS011;15664;51.302;7.744;2022-12-18T03:22:07;6.32;;;1.95;;
28431;SDS011;15664;51.302;7.744;2022-12-18T03:24:42;7.03;;;1.88;;
28431;SDS011;15664;51.302;7.744;2022-12-18T03:27:09;5.60;;;2.10;;
28431;SDS011;15664;51.302;7.744;2022-12-18T03:29:40;5.97;;;2.07;;
28431;SDS011;15664;51.302;7.744;2022-12-18T03:32:35;4.97;;;1.85;;
28431;SDS011;15664;51.302;7.744;2022-12-18T03:35:25;6.55;;;2.20;;
28431;SDS011;15664;51.302;7.744;2022-12-18T03:37:55;4.95;;;2.00;;
28431;SDS011;15664;51.302;7.744;2022-12-18T03:40:22;6.15;;;1.65;;
28431;SDS011;15664;51.302;7.744;2022-12-18T03:43:02;7.72;;;2.35;;
28431;SDS011;15664;51.302;7.744;2022-12-18T03:45:34;6.78;;;1.80;;
28431;SDS011;15664;51.302;7.744;2022-12-18T03:48:06;6.20;;;1.83;;
28431;SDS011;15664;51.302;7.744;2022-12-18T03:50:51;7.05;;;2.08;;
28431;SDS011;15664;51.302;7.744;2022-12-18T03:56:27;7.20;;;2.10;;
28431;SDS011;15664;51.302;7.744;2022-12-18T03:58:58;6.63;;;2.15;;
28431;SDS011;15664;51.302;7.744;2022-12-18T04:01:31;5.95;;;1.80;;
28431;SDS011;15664;51.302;7.744;2022-12-18T04:04:00;7.22;;;2.08;;
28431;SDS011;15664;51.302;7.744;2022-12-18T04:06:31;6.70;;;2.10;;
28431;SDS011;15664;51.302;7.744;2022-12-18T04:08:57;7.43;;;2.40;;
28431;SDS011;15664;51.302;7.744;2022-12-18T04:11:24;6.85;;;2.05;;
28431;SDS011;15664;51.302;7.744;2022-12-18T04:13:50;7.33;;;2.43;;
28431;SDS011;15664;51.302;7.744;2022-12-18T04:16:21;6.30;;;2.08;;
28431;SDS011;15664;51.302;7.744;2022-12-18T04:18:50;6.30;;;2.15;;
28431;SDS011;15664;51.302;7.744;2022-12-18T04:21:17;7.20;;;2.13;;
28431;SDS011;15664;51.302;7.744;2022-12-18T04:23:43;5.18;;;1.80;;
28431;SDS011;15664;51.302;7.744;2022-12-18T04:26:08;5.30;;;2.00;;
28431;SDS011;15664;51.302;7.744;2022-12-18T04:29:00;6.38;;;1.98;;
28431;SDS011;15664;51.302;7.744;2022-12-18T04:31:26;7.97;;;2.13;;
28431;SDS011;15664;51.302;7.744;2022-12-18T04:33:51;5.40;;;1.83;;
28431;SDS011;15664;51.302;7.744;2022-12-18T04:36:17;6.15;;;1.92;;
28431;SDS011;15664;51.302;7.744;2022-12-18T04:38:44;4.95;;;1.60;;
28431;SDS011;15664;51.302;7.744;2022-12-18T04:41:12;5.20;;;1.80;;
28431;SDS011;15664;51.302;7.744;2022-12-18T04:43:39;6.28;;;2.22;;
28431;SDS011;15664;51.302;7.744;2022-12-18T04:46:06;6.50;;;1.95;;
28431;SDS011;15664;51.302;7.744;2022-12-18T04:48:32;5.15;;;1.77;;
28431;SDS011;15664;51.302;7.744;2022-12-18T04:50:57;8.93;;;2.13;;
28431;SDS011;15664;51.302;7.744;2022-12-18T04:53:23;5.50;;;2.10;;
28431;SDS011;15664;51.302;7.744;2022-12-18T04:55:48;5.57;;;2.63;;
28431;SDS011;15664;51.302;7.744;2022-12-18T04:58:14;5.07;;;1.87;;
28431;SDS011;15664;51.302;7.744;2022-12-18T05:00:39;4.70;;;1.73;;
28431;SDS011;15664;51.302;7.744;2022-12-18T05:03:04;5.53;;;2.03;;
28431;SDS011;15664;51.302;7.744;2022-12-18T05:05:30;5.70;;;2.17;;
28431;SDS011;15664;51.302;7.744;2022-12-18T05:07:55;5.53;;;2.25;;
28431;SDS011;15664;51.302;7.744;2022-12-18T05:10:21;7.17;;;2.47;;
28431;SDS011;15664;51.302;7.744;2022-12-18T05:12:46;6.17;;;2.20;;
28431;SDS011;15664;51.302;7.744;2022-12-18T05:15:24;12.95;;;2.97;;
28431;SDS011;15664;51.302;7.744;2022-12-18T05:17:52;7.95;;;2.72;;
28431;SDS011;15664;51.302;7.744;2022-12-18T05:20:18;5.95;;;2.08;;
28431;SDS011;15664;51.302;7.744;2022-12-18T05:22:43;6.38;;;2.13;;
28431;SDS011;15664;51.302;7.744;2022-12-18T05:25:09;8.07;;;2.43;;
28431;SDS011;15664;51.302;7.744;2022-12-18T05:27:34;5.87;;;2.07;;
28431;SDS011;15664;51.302;7.744;2022-12-18T05:29:59;7.23;;;2.53;;
28431;SDS011;15664;51.302;7.744;2022-12-18T05:32:25;5.53;;;1.93;;
28431;SDS011;15664;51.302;7.744;2022-12-18T05:34:50;8.27;;;2.27;;
28431;SDS011;15664;51.302;7.744;2022-12-18T05:37:15;7.90;;;2.37;;
28431;SDS011;15664;51.302;7.744;2022-12-18T05:39:42;9.20;;;2.72;;
28431;SDS011;15664;51.302;7.744;2022-12-18T05:42:07;7.82;;;2.30;;
28431;SDS011;15664;51.302;7.744;2022-12-18T05:44:33;6.83;;;2.87;;
28431;SDS011;15664;51.302;7.744;2022-12-18T05:46:58;9.17;;;2.73;;
28431;SDS011;15664;51.302;7.744;2022-12-18T05:49:24;10.17;;;3.17;;
28431;SDS011;15664;51.302;7.744;2022-12-18T05:51:49;5.40;;;2.10;;
28431;SDS011;15664;51.302;7.744;2022-12-18T05:54:14;5.03;;;2.10;;
28431;SDS011;15664;51.302;7.744;2022-12-18T05:56:40;9.87;;;2.53;;
28431;SDS011;15664;51.302;7.744;2022-12-18T05:59:05;8.80;;;2.90;;
28431;SDS011;15664;51.302;7.744;2022-12-18T06:01:30;9.70;;;2.88;;
28431;SDS011;15664;51.302;7.744;2022-12-18T06:03:56;8.23;;;2.80;;
28431;SDS011;15664;51.302;7.744;2022-12-18T06:06:25;8.67;;;2.93;;
28431;SDS011;15664;51.302;7.744;2022-12-18T06:08:52;6.87;;;2.50;;
28431;SDS011;15664;51.302;7.744;2022-12-18T06:11:19;10.02;;;2.45;;
28431;SDS011;15664;51.302;7.744;2022-12-18T06:13:46;6.32;;;2.40;;
28431;SDS011;15664;51.302;7.744;2022-12-18T06:16:14;5.47;;;2.40;;
28431;SDS011;15664;51.302;7.744;2022-12-18T06:18:39;7.73;;;2.73;;
28431;SDS011;15664;51.302;7.744;2022-12-18T06:21:04;6.67;;;2.87;;
28431;SDS011;15664;51.302;7.744;2022-12-18T06:23:30;8.02;;;2.58;;
28431;SDS011;15664;51.302;7.744;2022-12-18T06:25:55;7.60;;;2.60;;
28431;SDS011;15664;51.302;7.744;2022-12-18T06:28:21;6.07;;;2.40;;
28431;SDS011;15664;51.302;7.744;2022-12-18T06:30:46;9.00;;;2.87;;
28431;SDS011;15664;51.302;7.744;2022-12-18T06:33:13;6.80;;;2.75;;
28431;SDS011;15664;51.302;7.744;2022-12-18T06:35:39;8.57;;;2.67;;
28431;SDS011;15664;51.302;7.744;2022-12-18T06:38:05;7.70;;;2.80;;
28431;SDS011;15664;51.302;7.744;2022-12-18T06:40:30;11.67;;;3.40;;
28431;SDS011;15664;51.302;7.744;2022-12-18T06:42:56;7.43;;;2.10;;
28431;SDS011;15664;51.302;7.744;2022-12-18T06:45:21;10.13;;;2.77;;
28431;SDS011;15664;51.302;7.744;2022-12-18T06:47:46;8.23;;;2.47;;
28431;SDS011;15664;51.302;7.744;2022-12-18T06:50:12;7.63;;;2.83;;
28431;SDS011;15664;51.302;7.744;2022-12-18T06:52:38;5.05;;;2.60;;
28431;SDS011;15664;51.302;7.744;2022-12-18T06:55:05;6.22;;;1.83;;
28431;SDS011;15664;51.302;7.744;2022-12-18T06:57:31;5.60;;;2.35;;
28431;SDS011;15664;51.302;7.744;2022-12-18T06:59:56;8.97;;;2.70;;
28431;SDS011;15664;51.302;7.744;2022-12-18T07:02:22;10.10;;;2.97;;
28431;SDS011;15664;51.302;7.744;2022-12-18T07:04:47;5.63;;;2.33;;
28431;SDS011;15664;51.302;7.744;2022-12-18T07:07:12;9.07;;;2.67;;
28431;SDS011;15664;51.302;7.744;2022-12-18T07:09:37;7.17;;;2.70;;
28431;SDS011;15664;51.302;7.744;2022-12-18T07:12:03;9.17;;;4.07;;
28431;SDS011;15664;51.302;7.744;2022-12-18T07:14:29;7.57;;;2.65;;
28431;SDS011;15664;51.302;7.744;2022-12-18T07:16:55;8.20;;;2.50;;
28431;SDS011;15664;51.302;7.744;2022-12-18T07:19:20;7.10;;;2.37;;
28431;SDS011;15664;51.302;7.744;2022-12-18T07:21:45;9.80;;;2.70;;
28431;SDS011;15664;51.302;7.744;2022-12-18T07:24:11;10.37;;;2.67;;
28431;SDS011;15664;51.302;7.744;2022-12-18T07:26:36;7.90;;;3.03;;
28431;SDS011;15664;51.302;7.744;2022-12-18T07:29:01;10.53;;;3.50;;
28431;SDS011;15664;51.302;7.744;2022-12-18T07:31:27;10.93;;;2.75;;
28431;SDS011;15664;51.302;7.744;2022-12-18T07:33:52;12.53;;;3.73;;
28431;SDS011;15664;51.302;7.744;2022-12-18T07:36:18;10.35;;;3.75;;
28431;SDS011;15664;51.302;7.744;2022-12-18T07:38:46;9.82;;;3.53;;
28431;SDS011;15664;51.302;7.744;2022-12-18T07:41:13;10.18;;;3.65;;
28431;SDS011;15664;51.302;7.744;2022-12-18T07:43:39;11.23;;;3.47;;
28431;SDS011;15664;51.302;7.744;2022-12-18T07:46:05;12.68;;;4.03;;
28431;SDS011;15664;51.302;7.744;2022-12-18T07:48:32;11.70;;;3.53;;
28431;SDS011;15664;51.302;7.744;2022-12-18T07:50:58;10.40;;;3.47;;
28431;SDS011;15664;51.302;7.744;2022-12-18T07:53:27;7.78;;;2.83;;
28431;SDS011;15664;51.302;7.744;2022-12-18T07:55:57;11.23;;;3.90;;
28431;SDS011;15664;51.302;7.744;2022-12-18T07:58:23;11.27;;;3.50;;
28431;SDS011;15664;51.302;7.744;2022-12-18T08:00:48;9.13;;;3.37;;
28431;SDS011;15664;51.302;7.744;2022-12-18T08:03:14;12.70;;;3.83;;
28431;SDS011;15664;51.302;7.744;2022-12-18T08:05:39;8.50;;;3.10;;
28431;SDS011;15664;51.302;7.744;2022-12-18T08:08:04;9.33;;;3.43;;
28431;SDS011;15664;51.302;7.744;2022-12-18T08:10:30;8.63;;;3.10;;
28431;SDS011;15664;51.302;7.744;2022-12-18T08:12:55;8.80;;;3.30;;
28431;SDS011;15664;51.302;7.744;2022-12-18T08:15:20;8.70;;;3.57;;
28431;SDS011;15664;51.302;7.744;2022-12-18T08:17:45;12.50;;;3.93;;
28431;SDS011;15664;51.302;7.744;2022-12-18T08:20:11;10.47;;;3.10;;
28431;SDS011;15664;51.302;7.744;2022-12-18T08:22:36;11.20;;;3.70;;
28431;SDS011;15664;51.302;7.744;2022-12-18T08:25:02;11.38;;;3.25;;
28431;SDS011;15664;51.302;7.744;2022-12-18T08:27:28;6.38;;;2.25;;
28431;SDS011;15664;51.302;7.744;2022-12-18T08:29:54;9.05;;;2.97;;
28431;SDS011;15664;51.302;7.744;2022-12-18T08:32:20;7.80;;;2.57;;
28431;SDS011;15664;51.302;7.744;2022-12-18T08:34:45;9.17;;;3.23;;
28431;SDS011;15664;51.302;7.744;2022-12-18T08:37:10;9.40;;;2.57;;
28431;SDS011;15664;51.302;7.744;2022-12-18T08:39:36;8.10;;;2.90;;
28431;SDS011;15664;51.302;7.744;2022-12-18T08:42:01;7.45;;;3.00;;
28431;SDS011;15664;51.302;7.744;2022-12-18T08:44:45;8.23;;;2.50;;
28431;SDS011;15664;51.302;7.744;2022-12-18T08:47:10;8.13;;;2.63;;
28431;SDS011;15664;51.302;7.744;2022-12-18T08:49:35;8.27;;;2.47;;
28431;SDS011;15664;51.302;7.744;2022-12-18T08:52:01;8.90;;;2.97;;
28431;SDS011;15664;51.302;7.744;2022-12-18T08:54:27;6.90;;;2.35;;
28431;SDS011;15664;51.302;7.744;2022-12-18T08:56:53;8.33;;;3.40;;
28431;SDS011;15664;51.302;7.744;2022-12-18T08:59:18;6.57;;;2.30;;
28431;SDS011;15664;51.302;7.744;2022-12-18T09:01:44;7.95;;;2.45;;
28431;SDS011;15664;51.302;7.744;2022-12-18T09:04:10;8.82;;;2.83;;
28431;SDS011;15664;51.302;7.744;2022-12-18T09:06:36;8.85;;;2.67;;
28431;SDS011;15664;51.302;7.744;2022-12-18T09:09:02;9.30;;;2.43;;
28431;SDS011;15664;51.302;7.744;2022-12-18T09:11:28;7.15;;;2.35;;
28431;SDS011;15664;51.302;7.744;2022-12-18T09:13:54;6.20;;;2.38;;
28431;SDS011;15664;51.302;7.744;2022-12-18T09:16:20;6.77;;;2.20;;
28431;SDS011;15664;51.302;7.744;2022-12-18T09:18:46;7.22;;;2.05;;
28431;SDS011;15664;51.302;7.744;2022-12-18T09:21:14;8.07;;;2.40;;
28431;SDS011;15664;51.302;7.744;2022-12-18T09:23:41;6.32;;;2.50;;
28431;SDS011;15664;51.302;7.744;2022-12-18T09:26:06;6.53;;;2.83;;
28431;SDS011;15664;51.302;7.744;2022-12-18T09:28:32;8.30;;;2.47;;
28431;SDS011;15664;51.302;7.744;2022-12-18T09:30:57;4.13;;;1.70;;
28431;SDS011;15664;51.302;7.744;2022-12-18T09:33:23;8.93;;;2.78;;
28431;SDS011;15664;51.302;7.744;2022-12-18T09:35:48;6.53;;;2.50;;
28431;SDS011;15664;51.302;7.744;2022-12-18T09:38:15;5.93;;;1.97;;
28431;SDS011;15664;51.302;7.744;2022-12-18T09:40:53;5.97;;;2.22;;
28431;SDS011;15664;51.302;7.744;2022-12-18T09:43:26;6.60;;;2.03;;
28431;SDS011;15664;51.302;7.744;2022-12-18T09:45:59;5.68;;;1.80;;
28431;SDS011;15664;51.302;7.744;2022-12-18T09:48:36;5.78;;;2.35;;
28431;SDS011;15664;51.302;7.744;2022-12-18T09:51:10;8.77;;;3.83;;
28431;SDS011;15664;51.302;7.744;2022-12-18T09:53:58;9.23;;;3.10;;
28431;SDS011;15664;51.302;7.744;2022-12-18T09:56:26;8.50;;;2.83;;
28431;SDS011;15664;51.302;7.744;2022-12-18T09:59:00;9.77;;;2.80;;
28431;SDS011;15664;51.302;7.744;2022-12-18T10:01:28;9.88;;;3.83;;
28431;SDS011;15664;51.302;7.744;2022-12-18T10:03:55;7.80;;;2.63;;
28431;SDS011;15664;51.302;7.744;2022-12-18T10:06:26;5.65;;;2.08;;
28431;SDS011;15664;51.302;7.744;2022-12-18T10:11:55;6.65;;;2.60;;
28431;SDS011;15664;51.302;7.744;2022-12-18T10:14:45;8.35;;;2.65;;
28431;SDS011;15664;51.302;7.744;2022-12-18T10:20:27;6.10;;;2.63;;
28431;SDS011;15664;51.302;7.744;2022-12-18T10:26:05;6.82;;;2.45;;
28431;SDS011;15664;51.302;7.744;2022-12-18T10:28:34;6.95;;;2.58;;
28431;SDS011;15664;51.302;7.744;2022-12-18T10:31:02;7.22;;;2.53;;
28431;SDS011;15664;51.302;7.744;2022-12-18T10:33:31;8.13;;;3.17;;
28431;SDS011;15664;51.302;7.744;2022-12-18T10:35:58;7.17;;;2.80;;
28431;SDS011;15664;51.302;7.744;2022-12-18T10:38:25;7.93;;;3.25;;
28431;SDS011;15664;51.302;7.744;2022-12-18T10:41:02;8.87;;;3.93;;
28431;SDS011;15664;51.302;7.744;2022-12-18T10:43:32;8.73;;;3.20;;
28431;SDS011;15664;51.302;7.744;2022-12-18T10:46:03;8.60;;;3.47;;
28431;SDS011;15664;51.302;7.744;2022-12-18T10:48:33;9.35;;;3.20;;
28431;SDS011;15664;51.302;7.744;2022-12-18T10:51:06;6.97;;;2.97;;
28431;SDS011;15664;51.302;7.744;2022-12-18T10:53:33;8.60;;;3.23;;
28431;SDS011;15664;51.302;7.744;2022-12-18T10:56:01;8.02;;;3.17;;
28431;SDS011;15664;51.302;7.744;2022-12-18T10:58:32;6.75;;;2.65;;
28431;SDS011;15664;51.302;7.744;2022-12-18T11:01:07;6.13;;;2.63;;
28431;SDS011;15664;51.302;7.744;2022-12-18T11:03:58;8.25;;;2.78;;
28431;SDS011;15664;51.302;7.744;2022-12-18T11:06:26;7.18;;;2.90;;
28431;SDS011;15664;51.302;7.744;2022-12-18T11:08:59;7.03;;;2.37;;
28431;SDS011;15664;51.302;7.744;2022-12-18T11:11:29;7.18;;;2.35;;
28431;SDS011;15664;51.302;7.744;2022-12-18T11:14:03;6.53;;;2.72;;
28431;SDS011;15664;51.302;7.744;2022-12-18T11:16:43;8.60;;;2.80;;
28431;SDS011;15664;51.302;7.744;2022-12-18T11:22:02;6.17;;;2.60;;
28431;SDS011;15664;51.302;7.744;2022-12-18T11:24:49;5.88;;;2.28;;
28431;SDS011;15664;51.302;7.744;2022-12-18T11:27:18;6.60;;;2.72;;
28431;SDS011;15664;51.302;7.744;2022-12-18T11:29:44;8.37;;;2.60;;
28431;SDS011;15664;51.302;7.744;2022-12-18T11:32:27;7.03;;;2.47;;
28431;SDS011;15664;51.302;7.744;2022-12-18T11:37:38;6.07;;;2.23;;
28431;SDS011;15664;51.302;7.744;2022-12-18T11:40:14;6.38;;;2.25;;
28431;SDS011;15664;51.302;7.744;2022-12-18T11:45:41;5.00;;;2.08;;
28431;SDS011;15664;51.302;7.744;2022-12-18T11:48:17;7.75;;;2.88;;
28431;SDS011;15664;51.302;7.744;2022-12-18T11:50:54;5.83;;;2.50;;
28431;SDS011;15664;51.302;7.744;2022-12-18T11:53:21;6.93;;;2.78;;
28431;SDS011;15664;51.302;7.744;2022-12-18T11:55:49;6.40;;;2.55;;
28431;SDS011;15664;51.302;7.744;2022-12-18T12:03:39;7.57;;;2.33;;
28431;SDS011;15664;51.302;7.744;2022-12-18T12:06:21;7.35;;;2.20;;
28431;SDS011;15664;51.302;7.744;2022-12-18T12:09:04;6.30;;;1.88;;
28431;SDS011;15664;51.302;7.744;2022-12-18T12:14:17;8.10;;;2.60;;
28431;SDS011;15664;51.302;7.744;2022-12-18T12:17:08;7.07;;;2.80;;
28431;SDS011;15664;51.302;7.744;2022-12-18T12:23:15;6.10;;;2.30;;
28431;SDS011;15664;51.302;7.744;2022-12-18T12:33:38;6.38;;;2.20;;
28431;SDS011;15664;51.302;7.744;2022-12-18T12:36:29;6.88;;;2.70;;
28431;SDS011;15664;51.302;7.744;2022-12-18T12:39:06;6.38;;;2.35;;
28431;SDS011;15664;51.302;7.744;2022-12-18T12:41:35;8.57;;;2.90;;
28431;SDS011;15664;51.302;7.744;2022-12-18T12:44:22;7.03;;;2.90;;
28431;SDS011;15664;51.302;7.744;2022-12-18T12:46:52;6.95;;;3.05;;
28431;SDS011;15664;51.302;7.744;2022-12-18T12:49:24;6.90;;;2.55;;
28431;SDS011;15664;51.302;7.744;2022-12-18T12:52:00;10.05;;;3.28;;
28431;SDS011;15664;51.302;7.744;2022-12-18T12:54:48;8.43;;;2.78;;
28431;SDS011;15664;51.302;7.744;2022-12-18T12:57:16;9.93;;;3.10;;
28431;SDS011;15664;51.302;7.744;2022-12-18T12:59:47;5.72;;;2.08;;
28431;SDS011;15664;51.302;7.744;2022-12-18T13:02:20;9.77;;;3.22;;
28431;SDS011;15664;51.302;7.744;2022-12-18T13:04:56;9.65;;;3.03;;
28431;SDS011;15664;51.302;7.744;2022-12-18T13:07:33;9.13;;;3.58;;
28431;SDS011;15664;51.302;7.744;2022-12-18T13:10:13;9.67;;;3.13;;
28431;SDS011;15664;51.302;7.744;2022-12-18T13:15:47;7.82;;;3.28;;
28431;SDS011;15664;51.302;7.744;2022-12-18T13:18:23;8.18;;;2.90;;
28431;SDS011;15664;51.302;7.744;2022-12-18T13:31:15;8.32;;;3.15;;
28431;SDS011;15664;51.302;7.744;2022-12-18T13:34:22;7.35;;;2.70;;
28431;SDS011;15664;51.302;7.744;2022-12-18T13:36:49;9.27;;;3.63;;
28431;SDS011;15664;51.302;7.744;2022-12-18T13:41:46;9.55;;;3.67;;
28431;SDS011;15664;51.302;7.744;2022-12-18T13:47:52;9.68;;;4.07;;
28431;SDS011;15664;51.302;7.744;2022-12-18T13:50:18;8.55;;;3.53;;
28431;SDS011;15664;51.302;7.744;2022-12-18T13:52:49;11.57;;;4.07;;
28431;SDS011;15664;51.302;7.744;2022-12-18T13:55:16;10.45;;;4.15;;
28431;SDS011;15664;51.302;7.744;2022-12-18T13:57:44;13.48;;;5.10;;
28431;SDS011;15664;51.302;7.744;2022-12-18T14:02:47;11.60;;;4.43;;
28431;SDS011;15664;51.302;7.744;2022-12-18T14:05:23;10.88;;;4.25;;
28431;SDS011;15664;51.302;7.744;2022-12-18T14:07:50;11.45;;;4.20;;
28431;SDS011;15664;51.302;7.744;2022-12-18T14:10:16;11.90;;;4.67;;
28431;SDS011;15664;51.302;7.744;2022-12-18T14:12:45;9.52;;;4.05;;
28431;SDS011;15664;51.302;7.744;2022-12-18T14:17:53;11.35;;;4.53;;
28431;SDS011;15664;51.302;7.744;2022-12-18T14:20:22;12.00;;;4.68;;
28431;SDS011;15664;51.302;7.744;2022-12-18T14:22:49;12.68;;;4.85;;
28431;SDS011;15664;51.302;7.744;2022-12-18T14:27:44;13.98;;;4.03;;
28431;SDS011;15664;51.302;7.744;2022-12-18T14:33:00;14.07;;;4.35;;
28431;SDS011;15664;51.302;7.744;2022-12-18T14:35:26;11.60;;;5.00;;
28431;SDS011;15664;51.302;7.744;2022-12-18T14:37:52;12.50;;;5.03;;
28431;SDS011;15664;51.302;7.744;2022-12-18T14:40:17;13.37;;;5.37;;
28431;SDS011;15664;51.302;7.744;2022-12-18T14:42:42;13.87;;;5.13;;
28431;SDS011;15664;51.302;7.744;2022-12-18T14:47:59;11.77;;;4.82;;
28431;SDS011;15664;51.302;7.744;2022-12-18T14:50:25;9.02;;;4.10;;
28431;SDS011;15664;51.302;7.744;2022-12-18T14:52:51;13.07;;;4.73;;
28431;SDS011;15664;51.302;7.744;2022-12-18T14:55:17;13.20;;;4.57;;
28431;SDS011;15664;51.302;7.744;2022-12-18T14:57:44;12.95;;;5.25;;
28431;SDS011;15664;51.302;7.744;2022-12-18T15:00:15;18.52;;;6.97;;
28431;SDS011;15664;51.302;7.744;2022-12-18T15:02:43;12.57;;;5.27;;
28431;SDS011;15664;51.302;7.744;2022-12-18T15:05:19;14.23;;;5.70;;
28431;SDS011;15664;51.302;7.744;2022-12-18T15:07:50;15.98;;;6.47;;
28431;SDS011;15664;51.302;7.744;2022-12-18T15:10:27;20.92;;;6.22;;
28431;SDS011;15664;51.302;7.744;2022-12-18T15:18:03;14.60;;;5.70;;
28431;SDS011;15664;51.302;7.744;2022-12-18T15:20:32;18.20;;;6.70;;
28431;SDS011;15664;51.302;7.744;2022-12-18T15:23:23;15.40;;;5.25;;
28431;SDS011;15664;51.302;7.744;2022-12-18T15:28:24;14.30;;;6.03;;
28431;SDS011;15664;51.302;7.744;2022-12-18T15:36:18;14.77;;;5.50;;
28431;SDS011;15664;51.302;7.744;2022-12-18T15:38:47;19.45;;;7.38;;
28431;SDS011;15664;51.302;7.744;2022-12-18T15:41:14;16.20;;;6.07;;
28431;SDS011;15664;51.302;7.744;2022-12-18T15:43:48;17.33;;;6.45;;
28431;SDS011;15664;51.302;7.744;2022-12-18T15:46:19;19.20;;;6.40;;
28431;SDS011;15664;51.302;7.744;2022-12-18T15:48:55;15.65;;;6.47;;
28431;SDS011;15664;51.302;7.744;2022-12-18T15:51:31;17.25;;;6.80;;
28431;SDS011;15664;51.302;7.744;2022-12-18T15:54:00;19.13;;;6.80;;
28431;SDS011;15664;51.302;7.744;2022-12-18T15:56:28;16.73;;;6.45;;
28431;SDS011;15664;51.302;7.744;2022-12-18T15:59:14;14.65;;;6.03;;
28431;SDS011;15664;51.302;7.744;2022-12-18T16:01:41;17.48;;;6.25;;
28431;SDS011;15664;51.302;7.744;2022-12-18T16:04:14;13.90;;;5.45;;
28431;SDS011;15664;51.302;7.744;2022-12-18T16:06:42;17.13;;;6.10;;
28431;SDS011;15664;51.302;7.744;2022-12-18T16:09:08;19.95;;;6.45;;
28431;SDS011;15664;51.302;7.744;2022-12-18T16:11:34;15.98;;;5.80;;
28431;SDS011;15664;51.302;7.744;2022-12-18T16:16:48;14.45;;;5.55;;
28431;SDS011;15664;51.302;7.744;2022-12-18T16:19:16;14.70;;;6.00;;
28431;SDS011;15664;51.302;7.744;2022-12-18T16:21:42;16.90;;;6.17;;
28431;SDS011;15664;51.302;7.744;2022-12-18T16:24:17;19.20;;;5.80;;
28431;SDS011;15664;51.302;7.744;2022-12-18T16:26:44;15.93;;;6.18;;
28431;SDS011;15664;51.302;7.744;2022-12-18T16:29:09;15.23;;;5.90;;
28431;SDS011;15664;51.302;7.744;2022-12-18T16:31:35;18.27;;;6.57;;
28431;SDS011;15664;51.302;7.744;2022-12-18T16:36:50;18.48;;;6.18;;
28431;SDS011;15664;51.302;7.744;2022-12-18T16:39:15;20.33;;;6.90;;
28431;SDS011;15664;51.302;7.744;2022-12-18T16:41:41;18.63;;;6.32;;
28431;SDS011;15664;51.302;7.744;2022-12-18T16:44:07;17.23;;;6.60;;
28431;SDS011;15664;51.302;7.744;2022-12-18T16:46:32;17.85;;;7.10;;